Arctic Bay, Canada
Current Conditions -  °F | °C
As of 8:00 PM on Thursday 23 Oct 2014 (Local Time) from CYAB Reporting Station
Scattered Clouds Scattered Clouds  
Wind Chill: -10°   Ceiling: Unl
Heat Index:   Visibility: 15mi
Dew Point:   Wind: 18mph
Humidity: 73%   Direction: 290°WNW
Pressure: 30.06"   Gusts: NA
Location:  73.03°N, 85.17°W
Report Text: CYAB 240100Z 29016KT 15SM FEW030 SCT050 M13/M17 A3006 RMK SC2SC1 CALLOUT LAST STFD OBS/NXT 241100Z SLP183
Loading
Personal Weather Stations






























Interactive Weather Map New forecast layout! Learn more

10-Day Weather Forecast

Advertisements
Track Severe Weather on mobile